Time;durP1;ratioP1;P1;durP2;ratioP2;P2;SDS_P1;SDS_P2;PMS_P1;PMS_P2;Temp;Humidity;BMP_temperature;BMP_pressure;BME280_temperature;BME280_humidity;BME280_pressure;Samples;Min_cycle;Max_cycle;Signal;HPM_P1;HPM_P2
2022/07/17 00:01:58;;;;;;;0.70;0.27;;;19.20;99.90;;;;;;4935551;29;20474;-67
2022/07/17 00:04:26;;;;;;;0.70;0.10;;;19.80;99.90;;;;;;4931683;29;20512;-68
2022/07/17 00:06:54;;;;;;;0.60;0.17;;;19.80;99.90;;;;;;4916197;29;20534;-67
2022/07/17 00:09:23;;;;;;;0.70;0.10;;;19.80;99.90;;;;;;4916266;29;20468;-67
2022/07/17 00:11:51;;;;;;;0.70;0.13;;;19.80;99.90;;;;;;4916024;29;20554;-66
2022/07/17 00:14:19;;;;;;;0.60;0.20;;;19.80;99.90;;;;;;4915898;29;20452;-68
2022/07/17 00:16:47;;;;;;;0.70;0.10;;;19.80;99.90;;;;;;4933681;29;20460;-67
2022/07/17 00:19:15;;;;;;;0.70;0.10;;;19.70;99.90;;;;;;4934770;29;20483;-67
2022/07/17 00:21:44;;;;;;;0.70;0.10;;;;;;;;;;4935108;29;20505;-66
2022/07/17 00:24:12;;;;;;;0.70;0.10;;;19.70;99.90;;;;;;4934954;29;20530;-66
2022/07/17 00:26:42;;;;;;;0.90;0.57;;;19.70;99.90;;;;;;4916897;29;20453;-67
2022/07/17 00:29:10;;;;;;;0.70;0.10;;;19.70;99.90;;;;;;4946309;29;20522;-66
2022/07/17 00:31:38;;;;;;;0.60;0.10;;;19.60;99.90;;;;;;4953804;29;20461;-67
2022/07/17 00:34:06;;;;;;;0.70;0.20;;;19.60;99.90;;;;;;4954249;29;20506;-67
2022/07/17 00:36:34;;;;;;;0.60;0.10;;;19.60;99.90;;;;;;4952462;29;20960;-66
2022/07/17 00:39:03;;;;;;;0.60;0.10;;;19.50;99.90;;;;;;4936390;29;20470;-67
2022/07/17 00:41:31;;;;;;;0.70;0.10;;;19.50;99.90;;;;;;4936188;29;20444;-68
2022/07/17 00:44:06;;;;;;;0.67;0.10;;;19.40;99.90;;;;;;4935458;29;20444;-69
2022/07/17 00:46:34;;;;;;;0.60;0.10;;;19.40;99.90;;;;;;4934742;29;20501;-66
2022/07/17 00:49:03;;;;;;;0.60;0.20;;;19.30;99.90;;;;;;4934556;29;20839;-68
2022/07/17 00:51:30;;;;;;;0.60;0.10;;;19.30;99.90;;;;;;4926881;29;20468;-67
2022/07/17 00:53:59;;;;;;;0.70;0.10;;;19.30;99.90;;;;;;4916124;29;20830;-68
2022/07/17 00:56:37;;;;;;;0.60;0.10;;;19.20;99.90;;;;;;4921144;29;20482;-68
2022/07/17 00:59:07;;;;;;;0.60;0.20;;;19.20;99.90;;;;;;4937122;29;20967;-68
2022/07/17 01:01:35;;;;;;;0.70;0.10;;;19.20;99.90;;;;;;4933040;29;20439;-67
2022/07/17 01:04:03;;;;;;;0.60;0.10;;;19.20;99.90;;;;;;4933346;29;20566;-69
2022/07/17 01:06:31;;;;;;;0.60;0.10;;;19.20;99.90;;;;;;4934153;29;20551;-67
2022/07/17 01:08:59;;;;;;;0.60;0.10;;;19.10;99.90;;;;;;4934176;29;20519;-68
2022/07/17 01:11:27;;;;;;;0.60;0.20;;;19.10;99.90;;;;;;4932598;29;20459;-67
2022/07/17 01:13:55;;;;;;;0.63;0.10;;;19.10;99.90;;;;;;4934220;29;20462;-68
2022/07/17 01:16:25;;;;;;;0.70;0.20;;;19.00;99.90;;;;;;4934196;29;20455;-67
2022/07/17 01:18:53;;;;;;;0.63;0.20;;;19.00;99.90;;;;;;4934162;29;20598;-68
2022/07/17 01:21:23;;;;;;;0.60;0.10;;;;;;;;;;4934363;29;20532;-68
2022/07/17 01:23:51;;;;;;;0.60;0.10;;;19.00;99.90;;;;;;4934176;29;20448;-67
2022/07/17 01:26:19;;;;;;;0.60;0.10;;;19.00;99.90;;;;;;4921527;29;20492;-67
2022/07/17 01:28:47;;;;;;;0.60;0.10;;;19.00;99.90;;;;;;4943028;29;20470;-67
2022/07/17 01:31:14;;;;;;;0.60;0.17;;;19.00;99.90;;;;;;4937757;29;20457;-68
2022/07/17 01:33:42;;;;;;;0.60;0.20;;;19.00;99.90;;;;;;4919108;29;20449;-67
2022/07/17 01:36:10;;;;;;;0.60;0.20;;;19.00;99.90;;;;;;4918670;29;20970;-67
2022/07/17 01:38:40;;;;;;;0.70;0.20;;;18.90;99.90;;;;;;4918923;29;20448;-68
2022/07/17 01:41:08;;;;;;;0.60;0.20;;;18.90;99.90;;;;;;4919575;29;20830;-67
2022/07/17 01:43:36;;;;;;;0.60;0.10;;;18.90;99.90;;;;;;4918932;29;20456;-67
2022/07/17 01:46:04;;;;;;;0.70;0.10;;;18.90;99.90;;;;;;4918772;29;20508;-68
2022/07/17 01:48:32;;;;;;;0.60;0.20;;;18.90;99.90;;;;;;4918441;29;20878;-67
2022/07/17 01:51:00;;;;;;;0.60;0.10;;;18.90;99.90;;;;;;4918566;29;20444;-66
2022/07/17 01:53:28;;;;;;;0.60;0.10;;;18.50;99.90;;;;;;4918705;29;20972;-67
2022/07/17 01:55:57;;;;;;;0.60;0.10;;;18.80;99.90;;;;;;4918443;29;20865;-66
2022/07/17 01:58:25;;;;;;;0.60;0.13;;;18.80;99.90;;;;;;4924893;29;20456;-69
2022/07/17 02:00:53;;;;;;;0.60;0.13;;;18.80;99.90;;;;;;4935683;29;20451;-70
2022/07/17 02:03:22;;;;;;;0.60;0.20;;;18.80;99.90;;;;;;4937363;29;20476;-69
2022/07/17 02:05:50;;;;;;;0.60;0.10;;;18.80;99.90;;;;;;4937417;29;20492;-66
2022/07/17 02:08:18;;;;;;;0.60;0.20;;;18.70;99.90;;;;;;4937408;29;20448;-67
2022/07/17 02:10:46;;;;;;;0.60;0.20;;;18.70;99.90;;;;;;4937373;29;20450;-67
2022/07/17 02:13:15;;;;;;;0.60;0.10;;;18.70;99.90;;;;;;4937395;29;20473;-67
2022/07/17 02:15:43;;;;;;;0.60;0.20;;;18.70;99.90;;;;;;4926144;29;20456;-70
2022/07/17 02:18:11;;;;;;;0.60;0.20;;;18.70;99.90;;;;;;4918195;29;20459;-66
2022/07/17 02:20:41;;;;;;;1.67;1.37;;;18.60;99.90;;;;;;4918019;29;21050;-67
2022/07/17 02:23:10;;;;;;;0.60;0.10;;;18.60;99.90;;;;;;4918536;29;20451;-66
2022/07/17 02:25:38;;;;;;;0.60;0.10;;;18.60;99.90;;;;;;4918034;29;20955;-69
2022/07/17 02:28:05;;;;;;;0.60;0.10;;;18.60;99.90;;;;;;4931705;29;20457;-67
2022/07/17 02:30:35;;;;;;;0.60;0.10;;;18.50;99.90;;;;;;4954863;29;20990;-68
2022/07/17 02:33:03;;;;;;;0.60;0.10;;;18.50;99.90;;;;;;4917878;29;20894;-68
2022/07/17 02:35:30;;;;;;;0.60;0.17;;;18.50;99.90;;;;;;4917815;29;20449;-68
2022/07/17 02:37:58;;;;;;;0.60;0.10;;;18.40;99.90;;;;;;4917711;29;20536;-69
2022/07/17 02:40:26;;;;;;;0.60;0.10;;;18.40;99.90;;;;;;4916752;29;20475;-68
2022/07/17 02:42:54;;;;;;;0.60;0.10;;;18.40;99.90;;;;;;4917672;29;20938;-69
2022/07/17 02:45:24;;;;;;;0.60;0.10;;;18.40;99.90;;;;;;4917855;29;20449;-66
2022/07/17 02:47:55;;;;;;;0.60;0.20;;;18.40;99.90;;;;;;4917608;29;20445;-66
2022/07/17 02:50:23;;;;;;;0.60;0.10;;;18.30;99.90;;;;;;4918015;29;20942;-67
2022/07/17 02:52:51;;;;;;;0.60;0.17;;;18.40;99.90;;;;;;4917595;29;20451;-68
2022/07/17 02:55:19;;;;;;;0.60;0.20;;;19.60;99.90;;;;;;4917202;29;20982;-67
2022/07/17 02:57:47;;;;;;;0.60;0.10;;;18.30;99.90;;;;;;4939526;29;20463;-68
2022/07/17 03:00:18;;;;;;;0.60;0.20;;;18.30;99.90;;;;;;4937980;29;20468;-67
2022/07/17 03:02:47;;;;;;;0.60;0.10;;;18.30;99.90;;;;;;4935449;29;20444;-68
2022/07/17 03:05:17;;;;;;;0.60;0.10;;;18.30;99.90;;;;;;4934823;29;20451;-70
2022/07/17 03:07:46;;;;;;;0.60;0.10;;;18.30;99.90;;;;;;4935956;29;21004;-68
2022/07/17 03:10:14;;;;;;;0.60;0.10;;;18.20;99.90;;;;;;4936281;29;20805;-68
2022/07/17 03:12:43;;;;;;;0.60;0.10;;;18.20;99.90;;;;;;4936365;29;20485;-66
2022/07/17 03:15:12;;;;;;;0.60;0.10;;;18.20;99.90;;;;;;4936372;29;20506;-67
2022/07/17 03:17:40;;;;;;;0.60;0.10;;;;;;;;;;4935928;29;20444;-67
2022/07/17 03:20:10;;;;;;;0.60;0.10;;;18.10;99.90;;;;;;4935856;29;20480;-66
2022/07/17 03:22:39;;;;;;;0.60;0.10;;;18.00;99.90;;;;;;4934144;29;20452;-66
2022/07/17 03:25:09;;;;;;;0.60;0.10;;;18.00;99.90;;;;;;4935990;29;20455;-66
2022/07/17 03:27:38;;;;;;;0.60;0.10;;;18.00;99.90;;;;;;4938564;29;21000;-66
2022/07/17 03:30:07;;;;;;;0.60;0.10;;;18.00;99.90;;;;;;4955095;29;20472;-66
2022/07/17 03:32:35;;;;;;;0.60;0.10;;;18.00;99.90;;;;;;4954911;29;20454;-67
2022/07/17 03:35:04;;;;;;;0.60;0.10;;;18.10;99.90;;;;;;4954475;29;20501;-67
2022/07/17 03:37:31;;;;;;;0.60;0.10;;;18.00;99.90;;;;;;4950879;29;20964;-68
2022/07/17 03:40:02;;;;;;;0.60;0.13;;;18.00;99.90;;;;;;4935709;29;20471;-67
2022/07/17 03:42:30;;;;;;;0.60;0.10;;;17.90;99.90;;;;;;4935589;29;20461;-69
2022/07/17 03:44:58;;;;;;;0.60;0.10;;;17.90;99.90;;;;;;4935577;29;20539;-67
2022/07/17 03:47:26;;;;;;;0.60;0.20;;;17.90;99.90;;;;;;4935028;29;20487;-69
2022/07/17 03:49:54;;;;;;;0.60;0.17;;;17.90;99.90;;;;;;4935573;29;20480;-67
2022/07/17 03:52:21;;;;;;;0.60;0.10;;;17.90;99.90;;;;;;4935678;29;20458;-68
2022/07/17 03:54:49;;;;;;;0.60;0.10;;;17.90;99.90;;;;;;4928381;29;20459;-67
2022/07/17 03:57:18;;;;;;;0.60;0.10;;;17.90;99.90;;;;;;4937117;29;20459;-67
2022/07/17 03:59:46;;;;;;;0.60;0.10;;;17.80;99.90;;;;;;4935480;29;20475;-69
2022/07/17 04:02:14;;;;;;;0.60;0.10;;;17.80;99.90;;;;;;4935705;29;20464;-67
2022/07/17 04:04:42;;;;;;;0.60;0.10;;;17.80;99.90;;;;;;4935583;29;20448;-65
2022/07/17 04:07:26;;;;;;;0.60;0.10;;;17.80;99.90;;;;;;4935614;29;20483;-68
2022/07/17 04:09:56;;;;;;;0.60;0.20;;;;;;;;;;4928517;29;20870;-69
2022/07/17 04:12:26;;;;;;;0.60;0.10;;;17.60;99.90;;;;;;4916270;29;20452;-65
2022/07/17 04:14:54;;;;;;;0.60;0.10;;;17.60;99.90;;;;;;4916558;29;20455;-66
2022/07/17 04:17:22;;;;;;;0.60;0.20;;;;;;;;;;4916131;29;20958;-67
2022/07/17 04:19:51;;;;;;;0.60;0.10;;;17.60;99.90;;;;;;4916053;29;20563;-66
2022/07/17 04:22:19;;;;;;;0.60;0.10;;;17.60;99.90;;;;;;4916756;29;20452;-67
2022/07/17 04:24:47;;;;;;;0.60;0.13;;;17.60;99.90;;;;;;4916294;29;20449;-69
2022/07/17 04:27:15;;;;;;;0.60;0.10;;;17.60;99.90;;;;;;4931662;29;20487;-71
2022/07/17 04:29:45;;;;;;;0.60;0.20;;;17.60;99.90;;;;;;4954503;29;20470;-68
2022/07/17 04:32:13;;;;;;;0.60;0.20;;;17.70;99.90;;;;;;4954283;29;20820;-66
2022/07/17 04:34:41;;;;;;;0.60;0.10;;;17.70;99.90;;;;;;4954181;29;20455;-66
2022/07/17 04:37:09;;;;;;;0.60;0.10;;;17.70;99.90;;;;;;4953891;29;20558;-68
2022/07/17 04:39:36;;;;;;;0.60;0.20;;;17.80;99.90;;;;;;4953815;29;20507;-68
2022/07/17 04:42:04;;;;;;;0.60;0.10;;;17.80;99.90;;;;;;4951598;29;20453;-68
2022/07/17 04:44:32;;;;;;;0.60;0.20;;;17.80;99.90;;;;;;4934893;29;20443;-67
2022/07/17 04:47:01;;;;;;;0.60;0.10;;;17.70;99.90;;;;;;4934706;29;20536;-67
2022/07/17 04:49:30;;;;;;;0.60;0.20;;;17.70;99.90;;;;;;4934788;29;20472;-66
2022/07/17 04:51:58;;;;;;;0.60;0.10;;;17.70;99.90;;;;;;4934764;29;20457;-67
2022/07/17 04:54:26;;;;;;;0.60;0.10;;;17.70;99.90;;;;;;4935162;29;20546;-68
2022/07/17 04:56:54;;;;;;;0.60;0.20;;;17.80;99.90;;;;;;4934752;29;20451;-68
2022/07/17 04:59:22;;;;;;;0.60;0.20;;;17.90;99.90;;;;;;4932631;29;20994;-66
2022/07/17 05:01:50;;;;;;;0.60;0.10;;;17.90;99.90;;;;;;4934290;29;20452;-66
2022/07/17 05:04:19;;;;;;;0.60;0.10;;;17.90;99.90;;;;;;4934814;29;20541;-67
2022/07/17 05:06:54;;;;;;;0.60;0.10;;;17.80;99.90;;;;;;4934704;29;20447;-68
2022/07/17 05:09:22;;;;;;;0.60;0.10;;;17.70;99.90;;;;;;4934638;29;20471;-70
2022/07/17 05:11:50;;;;;;;0.60;0.13;;;17.70;99.90;;;;;;4934904;29;20796;-67
2022/07/17 05:14:18;;;;;;;0.60;0.10;;;17.70;99.90;;;;;;4925745;29;20461;-67
2022/07/17 05:16:46;;;;;;;0.60;0.20;;;17.70;99.90;;;;;;4916268;29;20464;-67
2022/07/17 05:19:14;;;;;;;0.60;0.10;;;17.60;99.90;;;;;;4915600;29;20480;-67
2022/07/17 05:21:43;;;;;;;0.60;0.10;;;17.70;99.90;;;;;;4915635;29;20449;-67
2022/07/17 05:24:11;;;;;;;0.60;0.20;;;17.70;99.90;;;;;;4915559;29;20449;-68
2022/07/17 05:26:39;;;;;;;0.60;0.10;;;17.70;99.90;;;;;;4915203;29;20941;-68
2022/07/17 05:29:07;;;;;;;0.60;0.10;;;17.80;99.90;;;;;;4945048;29;20487;-69
2022/07/17 05:31:35;;;;;;;0.60;0.10;;;17.70;99.90;;;;;;4953343;29;20446;-67
2022/07/17 05:34:03;;;;;;;1.07;0.97;;;17.70;99.90;;;;;;4934447;29;20467;-67
2022/07/17 05:36:31;;;;;;;0.60;0.10;;;17.60;99.90;;;;;;4934413;29;20459;-67
2022/07/17 05:39:00;;;;;;;0.60;0.10;;;17.60;99.90;;;;;;4934255;29;20469;-65
2022/07/17 05:41:28;;;;;;;0.60;0.20;;;17.60;99.90;;;;;;4934432;29;20532;-66
2022/07/17 05:43:56;;;;;;;0.60;0.10;;;17.60;99.90;;;;;;4934269;29;20510;-66
2022/07/17 05:46:25;;;;;;;0.60;0.10;;;;;;;;;;4934226;29;20454;-67
2022/07/17 05:48:54;;;;;;;0.60;0.10;;;;;;;;;;4932241;29;20734;-66
2022/07/17 05:51:24;;;;;;;0.60;0.10;;;;;;;;;;4924800;29;20950;-68
2022/07/17 05:53:52;;;;;;;0.60;0.10;;;17.60;99.90;;;;;;4915057;29;20456;-68
2022/07/17 05:56:23;;;;;;;0.60;0.10;;;17.60;99.90;;;;;;4914911;29;20457;-66
2022/07/17 05:58:51;;;;;;;0.60;0.10;;;17.70;99.90;;;;;;4915837;29;20470;-66
2022/07/17 06:01:19;;;;;;;0.60;0.10;;;17.70;99.90;;;;;;4932690;29;20455;-65
2022/07/17 06:03:47;;;;;;;0.60;0.20;;;17.70;99.90;;;;;;4933988;29;20503;-66
2022/07/17 06:06:15;;;;;;;0.60;0.10;;;17.70;99.90;;;;;;4933701;29;20463;-66
2022/07/17 06:08:43;;;;;;;0.60;0.10;;;17.80;99.90;;;;;;4933951;29;20501;-67
2022/07/17 06:11:11;;;;;;;0.60;0.10;;;17.80;99.90;;;;;;4934068;29;20452;-66
2022/07/17 06:13:40;;;;;;;0.60;0.10;;;17.90;99.90;;;;;;4930222;29;20461;-67
2022/07/17 06:16:08;;;;;;;0.60;0.10;;;18.00;99.90;;;;;;4918918;29;20455;-66
2022/07/17 06:18:36;;;;;;;0.60;0.10;;;18.20;99.90;;;;;;4918775;29;20441;-70
2022/07/17 06:21:04;;;;;;;0.60;0.13;;;18.20;99.90;;;;;;4918878;29;20537;-65
2022/07/17 06:23:32;;;;;;;0.60;0.10;;;18.20;99.90;;;;;;4918564;29;20455;-67
2022/07/17 06:26:00;;;;;;;0.60;0.10;;;18.20;99.90;;;;;;4925969;29;20968;-70
2022/07/17 06:28:29;;;;;;;0.60;0.10;;;18.20;99.90;;;;;;4947525;29;20506;-67
2022/07/17 06:30:59;;;;;;;1.37;0.73;;;18.20;99.90;;;;;;4944772;29;20486;-67
2022/07/17 06:33:27;;;;;;;0.60;0.10;;;18.20;99.90;;;;;;4948014;29;20517;-66
2022/07/17 06:35:55;;;;;;;0.60;0.10;;;18.20;99.90;;;;;;4947289;29;20448;-67
2022/07/17 06:38:23;;;;;;;0.60;0.10;;;18.40;99.90;;;;;;4944098;29;20444;-69
2022/07/17 06:40:51;;;;;;;0.60;0.10;;;18.30;99.90;;;;;;4938577;29;20829;-67
2022/07/17 06:43:20;;;;;;;0.60;0.10;;;18.50;99.90;;;;;;4941847;29;20445;-67
2022/07/17 06:45:47;;;;;;;0.60;0.13;;;18.60;99.90;;;;;;4953378;29;20443;-67
2022/07/17 06:48:17;;;;;;;0.60;0.13;;;18.70;99.90;;;;;;4922873;29;20512;-68
2022/07/17 06:50:45;;;;;;;0.60;0.10;;;18.80;99.90;;;;;;4940489;29;20568;-66
2022/07/17 06:53:12;;;;;;;0.60;0.10;;;18.90;99.90;;;;;;4952913;29;20942;-67
2022/07/17 06:55:40;;;;;;;0.60;0.10;;;19.00;99.90;;;;;;4956634;29;20461;-68
2022/07/17 06:58:08;;;;;;;0.60;0.10;;;19.00;99.90;;;;;;4955826;29;20451;-66
2022/07/17 07:00:36;;;;;;;0.60;0.10;;;19.00;99.90;;;;;;4955796;29;20965;-68
2022/07/17 07:03:04;;;;;;;0.60;0.10;;;19.20;99.90;;;;;;4954306;29;20451;-69
2022/07/17 07:05:33;;;;;;;0.60;0.20;;;19.20;99.90;;;;;;4918049;29;20456;-68
2022/07/17 07:08:01;;;;;;;0.70;0.10;;;19.40;99.90;;;;;;4917671;29;20925;-67
2022/07/17 07:10:30;;;;;;;0.60;0.10;;;19.50;99.90;;;;;;4917997;29;20468;-67
2022/07/17 07:12:57;;;;;;;0.60;0.10;;;19.50;99.90;;;;;;4917345;29;20448;-68
2022/07/17 07:15:25;;;;;;;0.70;0.17;;;19.60;99.90;;;;;;4938189;29;20443;-66
2022/07/17 07:17:53;;;;;;;0.63;0.20;;;19.70;99.90;;;;;;4940237;29;20440;-69
2022/07/17 07:20:21;;;;;;;0.67;0.13;;;19.80;99.90;;;;;;4934312;29;20483;-69
2022/07/17 07:22:50;;;;;;;0.60;0.20;;;19.80;99.90;;;;;;4943386;29;20447;-70
2022/07/17 07:25:18;;;;;;;0.60;0.10;;;19.90;99.90;;;;;;4941793;29;20440;-69
2022/07/17 07:27:46;;;;;;;0.67;0.20;;;19.90;99.90;;;;;;4947986;29;20797;-67
2022/07/17 07:30:14;;;;;;;0.60;0.10;;;20.00;99.90;;;;;;4950591;29;20497;-71
2022/07/17 07:32:42;;;;;;;0.60;0.10;;;20.00;99.90;;;;;;4937453;29;20471;-69
2022/07/17 07:35:10;;;;;;;0.90;0.40;;;20.20;99.90;;;;;;4943396;29;20950;-73
2022/07/17 07:37:38;;;;;;;0.80;0.30;;;20.20;99.90;;;;;;4938257;29;20463;-68
2022/07/17 07:40:10;;;;;;;0.70;0.20;;;20.20;99.90;;;;;;4947319;29;21008;-68
2022/07/17 07:42:38;;;;;;;0.60;0.10;;;20.30;99.90;;;;;;4946820;29;20451;-70
2022/07/17 07:45:07;;;;;;;0.70;0.10;;;20.30;99.90;;;;;;4950882;29;20457;-66
2022/07/17 07:47:42;;;;;;;0.70;0.10;;;20.40;99.90;;;;;;4944520;29;20480;-69
2022/07/17 07:50:10;;;;;;;0.70;0.10;;;20.50;99.90;;;;;;4941596;29;20569;-68
2022/07/17 07:52:38;;;;;;;0.60;0.10;;;20.50;99.90;;;;;;4933129;29;20452;-68
2022/07/17 07:55:09;;;;;;;0.70;0.10;;;20.60;99.90;;;;;;4945805;29;20949;-66
2022/07/17 07:57:44;;;;;;;0.70;0.20;;;20.70;99.90;;;;;;4943742;29;20954;-69
2022/07/17 08:00:13;;;;;;;0.70;0.10;;;20.80;99.90;;;;;;4945154;29;20463;-67
2022/07/17 08:02:42;;;;;;;0.70;0.10;;;20.90;99.90;;;;;;4942969;29;20523;-68
2022/07/17 08:05:10;;;;;;;0.70;0.10;;;21.00;99.90;;;;;;4935720;29;20448;-67
2022/07/17 08:07:37;;;;;;;0.70;0.10;;;21.10;99.90;;;;;;4939033;29;20530;-68
2022/07/17 08:10:08;;;;;;;0.70;0.17;;;21.20;99.90;;;;;;4942339;29;20502;-69
2022/07/17 08:12:36;;;;;;;0.70;0.13;;;21.20;99.90;;;;;;4936572;29;20495;-77
2022/07/17 08:15:20;;;;;;;0.70;0.20;;;21.30;99.90;;;;;;4937341;29;20472;-65
2022/07/17 08:17:50;;;;;;;0.70;0.10;;;21.40;99.90;;;;;;4935219;29;20439;-66
2022/07/17 08:20:20;;;;;;;0.87;0.50;;;21.50;99.90;;;;;;4941222;29;20476;-68
2022/07/17 08:22:49;;;;;;;0.70;0.20;;;21.50;99.90;;;;;;4937422;29;20463;-66
2022/07/17 08:25:33;;;;;;;0.70;0.20;;;21.50;99.90;;;;;;4934530;29;20443;-70
2022/07/17 08:28:05;;;;;;;0.70;0.10;;;21.50;99.90;;;;;;4942764;29;20446;-69
2022/07/17 08:30:34;;;;;;;0.70;0.10;;;21.50;99.90;;;;;;4948736;29;20570;-67
2022/07/17 08:33:04;;;;;;;0.70;0.20;;;21.60;99.90;;;;;;4932962;29;20448;-68
2022/07/17 08:35:32;;;;;;;0.70;0.20;;;21.60;99.90;;;;;;4934734;29;20952;-66
2022/07/17 08:38:01;;;;;;;0.70;0.10;;;21.70;99.90;;;;;;4931053;29;20548;-66
2022/07/17 08:40:31;;;;;;;0.70;0.20;;;21.80;99.90;;;;;;4936582;29;20464;-66
2022/07/17 08:43:03;;;;;;;0.70;0.20;;;21.90;99.90;;;;;;4937712;29;20876;-67
2022/07/17 08:45:32;;;;;;;0.70;0.10;;;21.90;99.90;;;;;;4936740;29;20452;-67
2022/07/17 08:48:01;;;;;;;0.70;0.10;;;21.90;99.90;;;;;;4940758;29;21014;-67
2022/07/17 08:50:30;;;;;;;0.70;0.10;;;22.00;99.90;;;;;;4943829;29;20482;-68
2022/07/17 08:52:58;;;;;;;0.70;0.20;;;22.00;99.90;;;;;;4941150;29;20460;-70
2022/07/17 08:55:27;;;;;;;0.70;0.10;;;22.10;99.90;;;;;;4934314;29;20448;-70
2022/07/17 08:57:55;;;;;;;0.70;0.20;;;;;;;;;;4941611;29;20453;-69
2022/07/17 09:00:26;;;;;;;0.70;0.10;;;22.20;99.90;;;;;;4939198;29;20472;-67
2022/07/17 09:02:56;;;;;;;0.70;0.20;;;22.30;99.90;;;;;;4940936;29;20450;-67
2022/07/17 09:05:26;;;;;;;0.70;0.10;;;22.30;99.90;;;;;;4940624;29;20527;-67
2022/07/17 09:07:54;;;;;;;0.70;0.10;;;22.30;99.90;;;;;;4944643;29;20521;-67
2022/07/17 09:10:32;;;;;;;3.80;2.57;;;22.40;99.90;;;;;;4940158;29;20490;-68
2022/07/17 09:13:01;;;;;;;0.70;0.20;;;22.50;99.90;;;;;;4934700;29;20463;-69
2022/07/17 09:15:33;;;;;;;0.70;0.20;;;22.50;99.90;;;;;;4932233;29;20474;-70
2022/07/17 09:18:01;;;;;;;0.70;0.20;;;22.50;99.90;;;;;;4931543;29;20482;-69
2022/07/17 09:20:30;;;;;;;0.70;0.10;;;22.50;99.90;;;;;;4952334;29;20475;-73
2022/07/17 09:23:00;;;;;;;0.70;0.10;;;22.60;99.90;;;;;;4951490;29;20442;-68
2022/07/17 09:25:36;;;;;;;0.70;0.20;;;22.70;99.90;;;;;;4942974;29;20796;-68
2022/07/17 09:28:06;;;;;;;0.70;0.10;;;22.70;99.90;;;;;;4935999;29;20471;-69
2022/07/17 09:30:36;;;;;;;0.70;0.17;;;22.80;99.90;;;;;;4929064;29;20506;-66
2022/07/17 09:33:08;;;;;;;0.70;0.20;;;22.80;99.90;;;;;;4933189;29;20456;-69
2022/07/17 09:35:44;;;;;;;0.70;0.10;;;22.80;99.90;;;;;;4926145;29;20456;-73
2022/07/17 09:38:13;;;;;;;0.70;0.10;;;22.90;99.90;;;;;;4935273;29;20451;-75
2022/07/17 09:43:44;;;;;;;0.70;0.20;;;22.90;99.90;;;;;;4934327;29;21006;-77
2022/07/17 09:46:17;;;;;;;0.70;0.20;;;23.10;99.90;;;;;;4936960;29;20458;-74
2022/07/17 09:48:48;;;;;;;0.70;0.20;;;23.10;99.90;;;;;;4937269;29;20467;-76
2022/07/17 09:51:23;;;;;;;0.70;0.20;;;23.20;99.90;;;;;;4937075;29;20480;-77
2022/07/17 09:53:52;;;;;;;0.80;0.50;;;23.20;99.90;;;;;;4939452;29;20451;-76
2022/07/17 09:56:22;;;;;;;0.70;0.20;;;23.30;99.90;;;;;;4938420;29;20448;-75
2022/07/17 09:58:52;;;;;;;0.70;0.20;;;23.50;99.90;;;;;;4927756;29;20487;-77
2022/07/17 10:01:21;;;;;;;0.70;0.10;;;23.50;99.90;;;;;;4918971;29;20477;-77
2022/07/17 10:03:53;;;;;;;0.70;0.20;;;23.60;99.90;;;;;;4919157;29;20955;-76
2022/07/17 10:06:22;;;;;;;0.70;0.20;;;23.60;99.90;;;;;;4919034;29;20600;-76
2022/07/17 10:08:50;;;;;;;0.70;0.20;;;23.60;99.90;;;;;;4919474;29;20492;-75
2022/07/17 10:11:21;;;;;;;0.70;0.10;;;23.70;99.90;;;;;;4918846;29;20502;-75
2022/07/17 10:13:52;;;;;;;0.70;0.10;;;23.80;99.90;;;;;;4919607;29;20480;-75
2022/07/17 10:16:26;;;;;;;0.70;0.20;;;23.80;99.90;;;;;;4934912;29;20463;-75
2022/07/17 10:18:57;;;;;;;0.70;0.10;;;23.90;99.90;;;;;;4937412;29;20565;-75
2022/07/17 10:21:27;;;;;;;0.70;0.20;;;23.90;99.90;;;;;;4937464;29;20866;-74
2022/07/17 10:24:09;;;;;;;0.70;0.10;;;24.00;99.90;;;;;;4937465;29;20458;-75
2022/07/17 10:26:44;;;;;;;0.70;0.10;;;24.10;99.90;;;;;;4934020;29;20474;-75
2022/07/17 10:29:30;;;;;;;0.70;0.20;;;24.10;99.90;;;;;;4955496;29;20473;-75
2022/07/17 10:32:01;;;;;;;0.70;0.20;;;24.20;99.90;;;;;;4956093;29;20486;-76
2022/07/17 10:34:40;;;;;;;0.70;0.20;;;24.20;99.90;;;;;;4962131;29;20451;-75
2022/07/17 10:37:17;;;;;;;0.70;0.13;;;24.30;99.90;;;;;;4958098;29;20451;-75
2022/07/17 10:40:00;;;;;;;0.70;0.13;;;24.40;99.90;;;;;;4956704;29;20895;-75
2022/07/17 10:42:59;;;;;;;0.80;0.50;;;24.50;99.90;;;;;;4918339;29;20460;-75
2022/07/17 10:45:33;;;;;;;0.70;0.20;;;24.50;99.90;;;;;;4896777;29;20533;-75
2022/07/17 10:48:07;;;;;;;0.70;0.20;;;24.60;99.90;;;;;;4913852;29;20868;-75
2022/07/17 10:50:37;;;;;;;0.70;0.10;;;24.60;99.90;;;;;;4917924;29;20599;-75
2022/07/17 10:53:09;;;;;;;0.70;0.10;;;24.70;99.90;;;;;;4918275;29;20445;-75
2022/07/17 10:55:39;;;;;;;0.70;0.20;;;24.70;99.90;;;;;;4918907;29;20452;-75
2022/07/17 10:58:24;;;;;;;0.70;0.20;;;24.80;99.90;;;;;;4932266;29;20507;-74
2022/07/17 11:01:07;;;;;;;0.70;0.10;;;24.80;99.90;;;;;;4937398;29;20443;-75
2022/07/17 11:03:44;;;;;;;0.70;0.10;;;24.80;99.90;;;;;;4937647;29;20451;-75
2022/07/17 11:06:18;;;;;;;0.70;0.20;;;24.80;99.90;;;;;;4937251;29;20499;-75
2022/07/17 11:08:49;;;;;;;0.70;0.20;;;24.90;99.90;;;;;;4938720;29;20463;-76
2022/07/17 11:11:19;;;;;;;0.70;0.10;;;25.00;99.90;;;;;;4937328;29;20486;-75
2022/07/17 11:14:07;;;;;;;0.70;0.20;;;25.10;99.90;;;;;;4936088;29;20727;-76
2022/07/17 11:16:35;;;;;;;0.70;0.20;;;25.30;99.90;;;;;;4937556;29;20447;-75
2022/07/17 11:19:04;;;;;;;0.70;0.10;;;25.30;99.90;;;;;;4938718;29;20491;-74
2022/07/17 11:21:35;;;;;;;0.70;0.20;;;25.40;99.90;;;;;;4937555;29;20459;-75
2022/07/17 11:24:03;;;;;;;0.70;0.20;;;25.40;99.90;;;;;;4937931;29;20464;-74
2022/07/17 11:26:32;;;;;;;0.70;0.10;;;25.60;99.90;;;;;;4937503;29;20439;-74
2022/07/17 11:29:01;;;;;;;0.70;0.10;;;25.60;99.90;;;;;;4938858;29;20555;-74
2022/07/17 11:31:30;;;;;;;0.70;0.20;;;25.60;99.90;;;;;;4934231;29;20487;-75
2022/07/17 11:33:59;;;;;;;0.70;0.10;;;25.70;99.90;;;;;;4917306;29;20959;-74
2022/07/17 11:36:31;;;;;;;0.70;0.10;;;25.70;99.90;;;;;;4917109;29;20468;-75
2022/07/17 11:39:02;;;;;;;0.70;0.10;;;25.70;99.90;;;;;;4916972;29;20477;-73
2022/07/17 11:41:35;;;;;;;0.70;0.20;;;25.80;99.90;;;;;;4917262;29;20544;-75
2022/07/17 11:44:07;;;;;;;0.70;0.20;;;25.80;99.90;;;;;;4917189;29;20611;-75
2022/07/17 11:46:35;;;;;;;0.70;0.20;;;25.70;99.90;;;;;;4925840;29;20460;-75
2022/07/17 11:49:04;;;;;;;0.70;0.20;;;;;;;;;;4936104;29;20467;-74
2022/07/17 11:51:39;;;;;;;0.70;0.20;;;25.90;99.90;;;;;;4935988;29;20511;-76
2022/07/17 11:54:09;;;;;;;0.70;0.10;;;25.90;99.90;;;;;;4935923;29;20452;-74
2022/07/17 11:56:38;;;;;;;0.70;0.20;;;;;;;;;;4935953;29;20448;-75
2022/07/17 11:59:07;;;;;;;0.70;0.10;;;26.10;99.90;;;;;;4935874;29;20816;-74
2022/07/17 12:01:44;;;;;;;0.70;0.10;;;26.10;99.90;;;;;;4921377;29;20453;-77
2022/07/17 12:04:13;;;;;;;0.70;0.10;;;26.20;99.90;;;;;;4916968;29;20452;-76
2022/07/17 12:06:46;;;;;;;1.03;0.53;;;26.30;99.90;;;;;;4916838;29;20469;-76
2022/07/17 12:09:15;;;;;;;0.70;0.10;;;26.30;99.90;;;;;;4917047;29;20980;-76
2022/07/17 12:11:47;;;;;;;0.70;0.20;;;26.30;99.90;;;;;;4917796;29;20481;-76
2022/07/17 12:14:16;;;;;;;0.70;0.20;;;;;;;;;;4933307;29;20871;-75
2022/07/17 12:16:44;;;;;;;0.70;0.17;;;26.30;99.90;;;;;;4933058;29;20471;-75
2022/07/17 12:19:15;;;;;;;0.70;0.10;;;26.40;99.90;;;;;;4934355;29;20534;-73
2022/07/17 12:21:55;;;;;;;0.70;0.10;;;26.40;99.90;;;;;;4935060;29;20448;-75
2022/07/17 12:24:26;;;;;;;0.70;0.20;;;26.40;99.90;;;;;;4936130;29;20498;-75
2022/07/17 12:26:55;;;;;;;0.70;0.10;;;26.40;99.90;;;;;;4941260;29;20831;-74
2022/07/17 12:29:24;;;;;;;0.70;0.10;;;26.30;99.90;;;;;;4942450;29;20475;-75
2022/07/17 12:32:02;;;;;;;0.70;0.10;;;26.40;99.90;;;;;;4936069;29;20484;-73
2022/07/17 12:34:31;;;;;;;0.70;0.10;;;26.40;99.90;;;;;;4936692;29;20994;-75
2022/07/17 12:37:00;;;;;;;0.70;0.17;;;26.40;99.90;;;;;;4935892;29;20448;-74
2022/07/17 12:39:28;;;;;;;0.70;0.20;;;26.50;99.90;;;;;;4932708;29;20487;-75
2022/07/17 12:41:56;;;;;;;0.70;0.20;;;26.50;99.90;;;;;;4917090;29;21012;-74
2022/07/17 12:44:24;;;;;;;0.70;0.10;;;;;;;;;;4917592;29;20456;-75
2022/07/17 12:46:53;;;;;;;0.70;0.13;;;26.70;99.90;;;;;;4917376;29;20567;-76
2022/07/17 12:49:21;;;;;;;0.70;0.10;;;26.80;99.90;;;;;;4917085;29;20567;-76
2022/07/17 12:51:49;;;;;;;0.70;0.20;;;26.90;99.90;;;;;;4916623;29;20579;-76
2022/07/17 12:54:18;;;;;;;0.70;0.20;;;26.90;99.90;;;;;;4923738;29;20523;-75
2022/07/17 12:56:47;;;;;;;0.70;0.10;;;26.90;99.90;;;;;;4925765;29;20479;-75
2022/07/17 12:59:15;;;;;;;0.70;0.20;;;27.10;99.90;;;;;;4916155;29;21000;-74
2022/07/17 13:01:45;;;;;;;0.70;0.20;;;;;;;;;;4916534;29;20449;-75
2022/07/17 13:04:15;;;;;;;0.70;0.20;;;27.10;99.90;;;;;;4917041;29;20537;-74
2022/07/17 13:06:42;;;;;;;0.70;0.13;;;27.20;99.90;;;;;;4915442;29;20452;-74